Terminal Aerodrome Forecast
Issued by NWS

Home | Current Version | Previous Version | Text Only | Print | Product List | Glossary On
Versions: 1 2 3 4 5 6 7 8 9 10 11 12 13 14 15 16 17 18 19 20 21 22 23
000
FTUS43 KILX 301145
TAFDEC
TAF
KDEC 301145Z 3012/0112 01009KT P6SM VCSH BKN007 OVC012
     FM301600 36012KT P6SM VCSH OVC015
     FM010100 36009KT 6SM -SHRA OVC015
     FM010600 35008KT 5SM BR VCSH BKN005 OVC015=

USA.gov is the U.S. government's official web portal to all federal, state and local government web resources and services.